Time;durP1;ratioP1;P1;durP2;ratioP2;P2;SDS_P1;SDS_P2;PMS_P1;PMS_P2;Temp;Humidity;BMP_temperature;BMP_pressure;BME280_temperature;BME280_humidity;BME280_pressure;Samples;Min_cycle;Max_cycle;Signal;HPM_P1;HPM_P2
2021/08/17 00:01:24;;;;;;;52.17;12.60;;;;;;;13.10;100.00;100305.56;2632757;36;20518;-50
2021/08/17 00:03:54;;;;;;;27.67;5.07;;;;;;;13.20;100.00;100315.31;2619442;47;20404;-48
2021/08/17 00:06:23;;;;;;;36.23;11.30;;;;;;;13.22;100.00;100315.31;2665506;36;20439;-50
2021/08/17 00:08:55;;;;;;;48.77;15.90;;;;;;;13.22;100.00;100320.50;2619354;47;20421;-50
2021/08/17 00:11:25;;;;;;;26.23;4.43;;;;;;;13.21;100.00;100321.34;2665189;36;20468;-51
2021/08/17 00:13:54;;;;;;;22.13;5.23;;;;;;;13.19;100.00;100323.03;2619202;47;20411;-50
2021/08/17 00:16:24;;;;;;;19.87;5.40;;;;;;;13.19;100.00;100316.13;2628534;36;20467;-50
2021/08/17 00:18:53;;;;;;;64.72;16.27;;;;;;;13.29;100.00;100322.44;2619205;47;20545;-50
2021/08/17 00:21:23;;;;;;;46.20;9.90;;;;;;;13.23;100.00;100322.28;2672637;36;20210;-48
2021/08/17 00:23:55;;;;;;;35.33;9.70;;;;;;;13.24;100.00;100326.63;2619081;47;20156;-49
2021/08/17 00:26:24;;;;;;;20.63;5.33;;;;;;;13.20;100.00;100332.56;2625272;36;20468;-48
2021/08/17 00:28:53;;;;;;;12.17;2.80;;;;;;;13.26;100.00;100322.34;2619054;54;20423;-49
2021/08/17 00:31:23;;;;;;;23.67;5.60;;;;;;;13.36;100.00;100329.50;2665133;36;20466;-51
2021/08/17 00:33:52;;;;;;;18.10;4.07;;;;;;;13.35;100.00;100330.31;2619099;54;20415;-50
2021/08/17 00:36:22;;;;;;;21.47;4.57;;;;;;;13.31;100.00;100332.81;2623076;36;20451;-54
2021/08/17 00:38:51;;;;;;;22.50;6.40;;;;;;;13.40;100.00;100332.16;2619110;47;20403;-50
2021/08/17 00:41:24;;;;;;;16.30;3.67;;;;;;;13.32;100.00;100342.31;2623021;36;20477;-53
2021/08/17 00:43:53;;;;;;;13.23;3.40;;;;;;;13.30;100.00;100334.53;2619054;47;20881;-48
2021/08/17 00:46:24;;;;;;;12.40;2.40;;;;;;;13.28;100.00;100332.75;2665239;36;20438;-49
2021/08/17 00:48:54;;;;;;;12.18;3.42;;;;;;;13.43;100.00;100334.81;2619326;47;20432;-48
2021/08/17 00:51:23;;;;;;;12.97;3.73;;;;;;;13.43;100.00;100333.09;2636002;36;20573;-50
2021/08/17 00:53:55;;;;;;;18.10;2.67;;;;;;;13.40;100.00;100334.75;2618822;47;20424;-50
2021/08/17 00:56:27;;;;;;;24.00;4.40;;;;;;;13.40;100.00;100333.03;2639251;36;20458;-50
2021/08/17 00:58:56;;;;;;;18.27;3.40;;;;;;;13.37;100.00;100336.44;2618982;47;20432;-50
2021/08/17 01:01:26;;;;;;;15.33;2.90;;;;;;;13.43;100.00;100335.69;2665095;36;20483;-49
2021/08/17 01:03:56;;;;;;;25.50;4.78;;;;;;;13.37;100.00;100336.44;2618699;54;20424;-52
2021/08/17 01:06:25;;;;;;;24.87;3.53;;;;;;;13.41;100.00;100336.47;2665270;36;20175;-50
2021/08/17 01:08:55;;;;;;;19.43;3.20;;;;;;;13.34;100.00;100340.66;2619338;47;20399;-52
2021/08/17 01:11:45;;;;;;;14.10;3.60;;;;;;;13.43;100.00;100334.81;2662368;36;20466;-51
2021/08/17 01:14:15;;;;;;;16.83;4.43;;;;;;;13.47;100.00;100344.44;2617838;47;20418;-51
2021/08/17 01:16:45;;;;;;;18.77;3.23;;;;;;;13.43;100.00;100334.81;2638820;36;20653;-49
2021/08/17 01:19:19;;;;;;;11.02;3.03;;;;;;;13.40;100.00;100345.09;2618177;47;20404;-50
2021/08/17 01:21:49;;;;;;;30.60;4.10;;;;;;;13.45;100.00;100348.69;2623701;36;20470;-49
2021/08/17 01:24:19;;;;;;;17.65;3.40;;;;;;;13.56;100.00;100355.03;2618355;54;20922;-50
2021/08/17 01:26:51;;;;;;;20.50;4.90;;;;;;;13.68;100.00;100354.44;2624504;36;20189;-51
2021/08/17 01:29:21;;;;;;;15.37;3.37;;;;;;;13.71;100.00;100357.09;2618426;46;20382;-50
2021/08/17 01:31:50;;;;;;;17.92;3.75;;;;;;;13.68;100.00;100362.19;2636593;36;20488;-50
2021/08/17 01:34:20;;;;;;;20.63;4.10;;;;;;;13.84;100.00;100363.41;2618538;47;20154;-49
2021/08/17 01:36:49;;;;;;;22.70;3.10;;;;;;;13.88;100.00;100360.06;2623756;36;20430;-51
2021/08/17 01:39:19;;;;;;;22.95;3.70;;;;;;;13.89;100.00;100360.91;2618502;46;20396;-51
2021/08/17 01:41:51;;;;;;;24.93;4.70;;;;;;;13.95;100.00;100358.47;2623609;36;20206;-48
2021/08/17 01:44:21;;;;;;;23.92;6.80;;;;;;;13.89;100.00;100363.50;2619637;47;20451;-50
2021/08/17 01:46:50;;;;;;;15.43;3.50;;;;;;;13.85;100.00;100367.75;2623579;36;20233;-52
2021/08/17 01:49:21;;;;;;;23.20;5.83;;;;;;;13.73;100.00;100367.47;2619574;54;20408;-52
2021/08/17 01:51:51;;;;;;;21.53;3.30;;;;;;;13.80;100.00;100384.06;2634975;36;20482;-48
2021/08/17 01:54:21;;;;;;;47.25;21.73;;;;;;;13.82;100.00;100385.84;2619823;46;20438;-53
2021/08/17 01:56:53;;;;;;;42.43;19.67;;;;;;;13.80;100.00;100387.53;2625267;36;20472;-49
2021/08/17 01:59:22;;;;;;;44.10;19.45;;;;;;;13.86;100.00;100392.88;2620480;39;20497;-49
2021/08/17 02:01:53;;;;;;;18.00;6.13;;;;;;;13.72;100.00;100395.16;2626798;36;20202;-52
2021/08/17 02:04:23;;;;;;;15.02;3.63;;;;;;;13.86;100.00;100397.16;2619882;46;20412;-50
2021/08/17 02:06:52;;;;;;;21.70;8.60;;;;;;;13.83;100.00;100395.38;2637115;36;20202;-49
2021/08/17 02:09:22;;;;;;;24.10;8.73;;;;;;;13.79;100.00;100396.13;2619952;46;20399;-49
2021/08/17 02:11:54;;;;;;;14.43;4.47;;;;;;;13.79;100.00;100392.69;2620419;36;20462;-54
2021/08/17 02:14:23;;;;;;;19.40;3.13;;;;;;;13.78;100.00;100394.41;2619648;47;20410;-48
2021/08/17 02:16:53;;;;;;;13.90;3.50;;;;;;;13.73;100.00;100401.19;2624830;36;20433;-53
2021/08/17 02:19:23;;;;;;;21.90;6.00;;;;;;;13.81;100.00;100398.78;2619716;47;20390;-54
2021/08/17 02:21:52;;;;;;;16.33;2.90;;;;;;;13.71;100.00;100408.94;2624733;36;20471;-53
2021/08/17 02:24:22;;;;;;;27.53;10.60;;;;;;;13.70;100.00;100406.31;2619863;46;20391;-49
2021/08/17 02:26:54;;;;;;;29.13;10.20;;;;;;;13.75;100.00;100402.13;2639524;36;20451;-48
2021/08/17 02:29:24;;;;;;;16.37;5.50;;;;;;;13.78;100.00;100407.34;2620370;39;20715;-50
2021/08/17 02:31:53;;;;;;;14.30;3.60;;;;;;;13.73;100.00;100411.56;2624730;36;20464;-49
2021/08/17 02:34:23;;;;;;;17.90;3.30;;;;;;;13.77;100.00;100409.09;2618632;46;20403;-51
2021/08/17 02:36:52;;;;;;;21.47;4.30;;;;;;;13.74;100.00;100410.75;2625392;36;20427;-51
2021/08/17 02:39:22;;;;;;;15.03;3.37;;;;;;;13.64;100.00;100418.28;2619729;47;20392;-53
2021/08/17 02:41:54;;;;;;;16.10;5.30;;;;;;;13.80;100.00;100416.06;2628649;36;20786;-51
2021/08/17 02:44:23;;;;;;;18.23;5.43;;;;;;;13.69;100.00;100409.75;2620166;39;20724;-51
2021/08/17 02:46:53;;;;;;;28.20;8.30;;;;;;;13.78;100.00;100409.94;2619968;36;20425;-48
2021/08/17 02:49:22;;;;;;;28.33;6.57;;;;;;;13.78;100.00;100412.53;2620142;39;20724;-49
2021/08/17 02:51:52;;;;;;;17.37;4.07;;;;;;;13.78;100.00;100415.13;2640675;36;20463;-50
2021/08/17 02:54:21;;;;;;;14.60;3.27;;;;;;;13.75;100.00;100407.31;2619687;46;20384;-47
2021/08/17 02:56:53;;;;;;;26.17;4.80;;;;;;;13.67;100.00;100411.41;2626075;36;20443;-51
2021/08/17 02:59:23;;;;;;;17.17;3.30;;;;;;;13.55;100.00;100407.72;2620070;39;20720;-52
2021/08/17 03:01:52;;;;;;;19.17;5.67;;;;;;;13.69;100.00;100404.56;2619169;39;20785;-51
2021/08/17 03:04:22;;;;;;;13.90;4.77;;;;;;;13.59;100.00;100399.16;2619633;46;20456;-47
2021/08/17 03:06:51;;;;;;;10.77;2.40;;;;;;;13.54;100.00;100403.34;2622459;36;20423;-51
2021/08/17 03:09:21;;;;;;;13.13;3.00;;;;;;;13.55;100.00;100402.53;2618526;46;20395;-49
2021/08/17 03:11:53;;;;;;;17.60;3.20;;;;;;;13.53;100.00;100395.56;2640870;36;20457;-53
2021/08/17 03:14:23;;;;;;;12.23;2.63;;;;;;;13.49;100.00;100403.25;2619611;47;21007;-52
2021/08/17 03:16:52;;;;;;;15.83;3.10;;;;;;;13.42;100.00;100401.31;2618429;47;20416;-51
2021/08/17 03:19:22;;;;;;;15.23;4.37;;;;;;;13.46;100.00;100403.19;2619706;46;20400;-48
2021/08/17 03:21:51;;;;;;;11.37;2.63;;;;;;;13.34;100.00;100406.28;2622455;36;20491;-50
2021/08/17 03:24:21;;;;;;;12.90;3.30;;;;;;;13.33;100.00;100401.09;2619585;46;20414;-52
2021/08/17 03:26:50;;;;;;;13.60;3.50;;;;;;;13.29;100.00;100405.34;2621610;36;20463;-50
2021/08/17 03:29:22;;;;;;;10.17;2.40;;;;;;;13.22;100.00;100409.47;2619781;47;20411;-48
2021/08/17 03:31:52;;;;;;;9.13;3.10;;;;;;;13.19;100.00;100404.19;2623531;36;20451;-52
2021/08/17 03:34:21;;;;;;;12.73;2.60;;;;;;;13.20;100.00;100413.75;2619378;47;20408;-51
2021/08/17 03:36:51;;;;;;;11.90;2.25;;;;;;;13.16;100.00;100421.38;2618480;47;20953;-49
2021/08/17 03:39:20;;;;;;;15.93;3.60;;;;;;;13.09;100.00;100412.59;2619695;46;20140;-50
2021/08/17 03:41:50;;;;;;;10.10;2.27;;;;;;;13.16;100.00;100423.97;2618516;46;20420;-51
2021/08/17 03:44:22;;;;;;;14.13;2.90;;;;;;;13.08;100.00;100416.88;2619610;47;20400;-49
2021/08/17 03:46:51;;;;;;;9.30;2.33;;;;;;;13.13;100.00;100414.41;2623318;36;20431;-50
2021/08/17 03:49:24;;;;;;;10.00;2.35;;;;;;;13.15;100.00;100406.66;2619248;47;20640;-52
2021/08/17 03:51:54;;;;;;;12.30;3.17;;;;;;;13.24;100.00;100415.56;2623765;36;20661;-52
2021/08/17 03:54:23;;;;;;;9.10;2.13;;;;;;;13.16;100.00;100419.66;2619403;46;20450;-52
2021/08/17 03:56:53;;;;;;;12.57;2.23;;;;;;;13.21;100.00;100422.38;2621504;36;20192;-52
2021/08/17 03:59:25;;;;;;;11.23;2.63;;;;;;;13.23;100.00;100425.91;2620005;39;20702;-51
2021/08/17 04:01:54;;;;;;;10.37;2.60;;;;;;;13.20;100.00;100425.81;2626510;36;20471;-48
2021/08/17 04:04:24;;;;;;;11.75;1.90;;;;;;;13.22;100.00;100424.13;2619934;39;20678;-51
2021/08/17 04:06:53;;;;;;;11.47;2.63;;;;;;;13.30;100.00;100433.00;2636457;36;20191;-51
2021/08/17 04:09:23;;;;;;;10.97;2.37;;;;;;;13.29;100.00;100444.19;2619632;46;20395;-51
2021/08/17 04:11:52;;;;;;;9.20;2.50;;;;;;;13.37;100.00;100439.19;2624985;36;20466;-50
2021/08/17 04:14:24;;;;;;;8.77;2.63;;;;;;;13.37;100.00;100447.84;2618315;47;20388;-49
2021/08/17 04:16:56;;;;;;;11.20;2.27;;;;;;;13.15;100.00;100458.47;2620931;36;20191;-49
2021/08/17 04:19:25;;;;;;;11.70;4.60;;;;;;;13.18;100.00;100458.56;2619513;47;20415;-52
2021/08/17 04:21:55;;;;;;;13.90;3.20;;;;;;;13.20;100.00;100460.38;2639324;36;20460;-50
2021/08/17 04:24:25;;;;;;;8.40;1.63;;;;;;;13.05;100.00;100471.19;2618231;47;20874;-49
2021/08/17 04:26:54;;;;;;;17.73;3.30;;;;;;;13.14;100.00;100477.44;2619273;39;20717;-50
2021/08/17 04:29:26;;;;;;;18.40;3.23;;;;;;;13.15;100.00;100480.09;2619465;47;20396;-51
2021/08/17 04:31:56;;;;;;;14.73;3.50;;;;;;;13.24;100.00;100487.22;2617739;47;20438;-48
2021/08/17 04:34:25;;;;;;;14.90;3.30;;;;;;;13.18;100.00;100487.94;2619178;54;20926;-51
2021/08/17 04:36:55;;;;;;;16.87;3.20;;;;;;;13.24;100.00;100487.22;2623862;36;20773;-53
2021/08/17 04:39:24;;;;;;;12.57;3.30;;;;;;;13.23;100.00;100491.53;2620150;47;20401;-52
2021/08/17 04:41:54;;;;;;;9.77;2.70;;;;;;;13.33;100.00;100497.81;2626133;36;20783;-51
2021/08/17 04:44:26;;;;;;;12.30;3.90;;;;;;;13.43;100.00;100496.34;2620087;46;20147;-53
2021/08/17 04:46:56;;;;;;;15.40;4.22;;;;;;;13.43;100.00;100500.66;2619600;54;20419;-55
2021/08/17 04:49:25;;;;;;;15.20;3.60;;;;;;;13.50;100.00;100502.63;2620098;46;20643;-52
2021/08/17 04:51:54;;;;;;;18.23;4.00;;;;;;;13.56;100.00;100510.53;2624054;36;20937;-50
2021/08/17 04:54:24;;;;;;;47.13;22.57;;;;;;;13.63;100.00;100509.84;2619614;46;20408;-51
2021/08/17 04:56:53;;;;;;;9.47;2.77;;;;;;;13.53;100.00;100502.66;2625104;36;20443;-51
2021/08/17 04:59:25;;;;;;;18.13;3.67;;;;;;;13.56;100.00;100523.50;2620132;47;20403;-54
2021/08/17 05:01:55;;;;;;;22.90;5.57;;;;;;;13.63;100.00;100525.41;2624889;36;20462;-50
2021/08/17 05:04:24;;;;;;;22.37;4.30;;;;;;;13.67;100.00;100533.25;2620587;39;20716;-51
2021/08/17 05:06:54;;;;;;;21.87;4.83;;;;;;;13.70;100.00;100544.56;2638983;36;20435;-54
2021/08/17 05:09:25;;;;;;;17.43;4.70;;;;;;;13.80;100.00;100542.22;2620156;47;20873;-51
2021/08/17 05:11:54;;;;;;;14.30;5.17;;;;;;;13.84;100.00;100560.47;2623920;36;20459;-48
2021/08/17 05:14:27;;;;;;;19.83;4.47;;;;;;;13.76;100.00;100555.09;2620001;46;20402;-51
2021/08/17 05:16:56;;;;;;;18.80;6.10;;;;;;;13.87;100.00;100555.41;2625841;36;20825;-51
2021/08/17 05:19:25;;;;;;;26.23;5.63;;;;;;;13.93;100.00;100558.97;2619985;47;21182;-48
2021/08/17 05:21:55;;;;;;;20.27;5.93;;;;;;;14.01;100.00;100557.44;2623281;36;20475;-49
2021/08/17 05:24:25;;;;;;;22.13;5.67;;;;;;;14.14;100.00;100564.69;2620076;47;20380;-52
2021/08/17 05:26:54;;;;;;;30.23;6.33;;;;;;;14.20;100.00;100576.06;2635346;36;20443;-50
2021/08/17 05:29:26;;;;;;;26.63;6.17;;;;;;;14.12;100.00;100570.66;2620069;46;20407;-49
2021/08/17 05:31:56;;;;;;;28.07;6.10;;;;;;;14.22;100.00;100572.66;2637482;36;20518;-52
2021/08/17 05:34:25;;;;;;;21.07;6.10;;;;;;;14.25;100.00;100575.31;2620272;39;20736;-48
2021/08/17 05:36:55;;;;;;;28.10;6.43;;;;;;;14.16;100.00;100578.56;2640694;36;20455;-50
2021/08/17 05:39:24;;;;;;;23.90;6.27;;;;;;;14.22;100.00;100582.16;2619843;54;20388;-52
2021/08/17 05:41:54;;;;;;;27.10;7.20;;;;;;;14.21;100.00;100583.00;2620562;36;20770;-50
2021/08/17 05:44:23;;;;;;;26.97;6.00;;;;;;;14.21;100.00;100576.09;2620006;46;20396;-53
2021/08/17 05:46:55;;;;;;;30.85;7.45;;;;;;;14.36;100.00;100575.56;2623520;36;20447;-54
2021/08/17 05:49:25;;;;;;;45.07;7.00;;;;;;;14.16;100.00;100575.97;2619773;47;20148;-51
2021/08/17 05:51:54;;;;;;;25.97;5.77;;;;;;;14.08;100.00;100577.50;2637512;36;20463;-51
2021/08/17 05:54:23;;;;;;;39.10;8.70;;;;;;;14.16;100.00;100588.06;2619898;46;20397;-50
2021/08/17 05:56:53;;;;;;;30.23;7.57;;;;;;;14.33;100.00;100580.69;2618080;47;20408;-51
2021/08/17 05:59:23;;;;;;;27.77;6.40;;;;;;;14.30;100.00;100588.38;2619900;46;20478;-49
2021/08/17 06:01:52;;;;;;;31.73;7.30;;;;;;;14.37;100.00;100594.63;2619637;46;20458;-51
2021/08/17 06:04:25;;;;;;;22.37;6.03;;;;;;;14.38;100.00;100592.06;2618344;46;20401;-52
2021/08/17 06:06:55;;;;;;;23.90;5.93;;;;;;;14.29;100.00;100592.72;2618927;46;20420;-52
2021/08/17 06:09:24;;;;;;;20.58;5.85;;;;;;;14.30;100.00;100590.97;2619806;47;20395;-52
2021/08/17 06:11:57;;;;;;;24.60;6.70;;;;;;;14.41;100.00;100596.44;2618251;46;20179;-49
2021/08/17 06:14:26;;;;;;;32.03;10.70;;;;;;;14.63;100.00;100595.22;2619927;46;20393;-52
2021/08/17 06:16:56;;;;;;;28.17;8.00;;;;;;;14.79;100.00;100595.56;2641031;36;20430;-52
2021/08/17 06:19:28;;;;;;;21.25;6.63;;;;;;;14.57;100.00;100587.28;2619912;46;20396;-51
2021/08/17 06:21:58;;;;;;;34.13;6.97;;;;;;;14.70;100.00;100597.09;2636329;36;20241;-53
2021/08/17 06:24:27;;;;;;;32.53;6.53;;;;;;;14.78;100.00;100586.03;2619730;46;20403;-53
2021/08/17 06:27:01;;;;;;;24.87;6.30;;;;;;;14.84;100.00;100589.66;2636876;36;20452;-52
2021/08/17 06:29:30;;;;;;;24.73;5.67;;;;;;;14.70;100.00;100593.63;2618672;47;20405;-49
2021/08/17 06:32:00;;;;;;;29.17;6.13;;;;;;;14.86;100.00;100581.88;2620060;36;20455;-53
2021/08/17 06:34:35;;;;;;;31.73;6.50;;;;;;;14.94;100.00;100590.72;2619662;46;20404;-51
2021/08/17 06:37:04;;;;;;;30.00;6.67;;;;;;;15.05;100.00;100597.84;2637221;36;20896;-49
2021/08/17 06:39:34;;;;;;;20.17;5.30;;;;;;;15.06;100.00;100591.81;2621592;36;20405;-51
2021/08/17 06:42:04;;;;;;;17.77;4.63;;;;;;;14.89;100.00;100575.88;2619781;39;20531;-52
2021/08/17 06:44:33;;;;;;;21.60;5.50;;;;;;;14.94;100.00;100588.13;2618448;46;20165;-51
2021/08/17 06:47:04;;;;;;;16.97;5.07;;;;;;;14.96;100.00;100589.03;2637177;36;20453;-50
2021/08/17 06:49:36;;;;;;;12.90;3.95;;;;;;;14.85;100.00;100590.50;2621146;36;20385;-51
2021/08/17 06:52:06;;;;;;;20.97;5.93;;;;;;;14.92;100.00;100592.41;2619647;47;20190;-50
2021/08/17 06:54:35;;;;;;;17.85;5.13;;;;;;;15.02;100.00;100590.00;2619484;47;20408;-51
2021/08/17 06:57:06;;;;;;;23.03;5.10;;;;;;;15.09;100.00;100589.28;2621261;36;20189;-50
2021/08/17 06:59:35;;;;;;;17.17;4.10;;;;;;;15.01;100.00;100585.66;2619269;36;20435;-48
2021/08/17 07:02:05;;;;;;;21.27;4.83;;;;;;;14.97;100.00;100588.19;2618843;46;20430;-52
2021/08/17 07:04:37;;;;;;;26.93;4.63;;;;;;;15.00;100.00;100587.38;2621708;36;20751;-49
2021/08/17 07:07:07;;;;;;;24.03;4.90;;;;;;;14.92;100.00;100582.00;2619282;46;20412;-52
2021/08/17 07:09:36;;;;;;;13.23;4.60;;;;;;;15.06;100.00;100584.91;2641354;36;20411;-50
2021/08/17 07:12:06;;;;;;;16.80;4.57;;;;;;;15.07;100.00;100586.66;2618901;46;20426;-50
2021/08/17 07:14:36;;;;;;;16.43;4.00;;;;;;;15.11;100.00;100588.47;2638781;36;20412;-49
2021/08/17 07:17:06;;;;;;;20.20;4.20;;;;;;;15.18;100.00;100567.81;2619244;47;20392;-51
2021/08/17 07:19:38;;;;;;;15.80;4.67;;;;;;;15.22;100.00;100570.50;2642462;36;20730;-52
2021/08/17 07:22:07;;;;;;;22.30;4.30;;;;;;;15.30;100.00;100569.75;2618955;47;20927;-49
2021/08/17 07:24:37;;;;;;;17.77;5.20;;;;;;;15.55;100.00;100575.44;2629117;36;20395;-49
2021/08/17 07:27:06;;;;;;;19.07;4.50;;;;;;;15.59;100.00;100575.50;2619359;46;20154;-53
2021/08/17 07:29:36;;;;;;;18.80;4.20;;;;;;;15.37;100.00;100569.03;2621033;36;20397;-51
2021/08/17 07:32:06;;;;;;;19.57;4.00;;;;;;;15.41;100.00;100568.25;2619390;46;20466;-52
2021/08/17 07:34:40;;;;;;;17.20;4.83;;;;;;;15.68;100.00;100558.34;2619529;36;20399;-49
2021/08/17 07:37:10;;;;;;;17.30;4.53;;;;;;;15.69;100.00;100558.34;2621215;36;20415;-51
2021/08/17 07:39:39;;;;;;;20.27;4.17;;;;;;;15.59;100.00;100559.03;2642043;36;20151;-53
2021/08/17 07:42:09;;;;;;;12.93;3.20;;;;;;;15.33;100.00;100541.25;2618778;46;20455;-52
2021/08/17 07:44:38;;;;;;;10.23;3.63;;;;;;;15.35;100.00;100561.22;2627986;36;20136;-50
2021/08/17 07:47:08;;;;;;;16.70;3.58;;;;;;;15.37;100.00;100569.91;2619198;54;20879;-54
2021/08/17 07:49:40;;;;;;;12.63;5.03;;;;;;;15.57;100.00;100560.72;2641070;36;20238;-51
2021/08/17 07:52:10;;;;;;;13.10;3.50;;;;;;;15.43;100.00;100553.53;2619217;39;20770;-50
2021/08/17 07:54:40;;;;;;;12.35;3.35;;;;;;;15.31;100.00;100554.19;2640791;36;20432;-51
2021/08/17 07:57:09;;;;;;;14.73;3.53;;;;;;;15.42;100.00;100566.53;2618688;47;20163;-50
2021/08/17 07:59:39;;;;;;;9.90;3.30;;;;;;;15.29;100.00;100565.41;2624738;36;20408;-52
2021/08/17 08:02:09;;;;;;;9.50;3.90;;;;;;;15.47;100.00;100570.06;2619306;47;21235;-51
2021/08/17 08:04:41;;;;;;;6.50;2.40;;;;;;;15.39;100.00;100577.75;2640298;36;20412;-52
2021/08/17 08:07:11;;;;;;;14.90;3.27;;;;;;;15.47;100.00;100576.16;2618694;47;20422;-52
2021/08/17 08:09:40;;;;;;;17.03;6.33;;;;;;;15.39;100.00;100568.22;2642555;36;20419;-53
2021/08/17 08:12:13;;;;;;;11.07;2.97;;;;;;;15.38;100.00;100570.78;2618449;47;20450;-51
2021/08/17 08:14:43;;;;;;;8.50;1.90;;;;;;;15.28;100.00;100563.66;2623807;36;20746;-51
2021/08/17 08:17:13;;;;;;;12.23;3.03;;;;;;;15.34;100.00;100574.19;2619131;47;20420;-50
2021/08/17 08:19:45;;;;;;;11.00;3.10;;;;;;;15.25;100.00;100580.97;2646417;36;20403;-50
2021/08/17 08:22:14;;;;;;;14.37;2.73;;;;;;;14.97;100.00;100603.75;2618866;47;20443;-49
2021/08/17 08:24:44;;;;;;;11.77;3.20;;;;;;;14.94;100.00;100592.44;2624420;36;20439;-48
2021/08/17 08:27:14;;;;;;;7.80;2.60;;;;;;;14.70;100.00;100591.91;2618337;47;20430;-55
2021/08/17 08:29:44;;;;;;;19.17;6.78;;;;;;;14.75;100.00;100604.13;2624505;36;20412;-50
2021/08/17 08:32:13;;;;;;;42.50;18.05;;;;;;;14.67;100.00;100612.59;2619250;47;20186;-50
2021/08/17 08:34:46;;;;;;;25.98;12.65;;;;;;;14.68;100.00;100610.91;2628175;36;20435;-53
2021/08/17 08:37:15;;;;;;;7.70;3.53;;;;;;;14.61;100.00;100622.84;2619408;39;20501;-51
2021/08/17 08:39:46;;;;;;;13.80;6.37;;;;;;;14.78;100.00;100615.50;2643402;36;20396;-48
2021/08/17 08:42:18;;;;;;;14.53;3.30;;;;;;;14.72;100.00;100625.72;2618577;47;20437;-52
2021/08/17 08:44:47;;;;;;;25.37;13.13;;;;;;;14.86;100.00;100613.03;2623239;36;20503;-51
2021/08/17 08:47:17;;;;;;;9.37;3.50;;;;;;;14.78;100.00;100635.38;2619022;47;20390;-50
2021/08/17 08:49:52;;;;;;;8.05;2.92;;;;;;;14.81;100.00;100638.91;2625438;36;20435;-50
2021/08/17 08:52:23;;;;;;;17.07;6.10;;;;;;;14.88;100.00;100634.75;2619415;39;20585;-54
2021/08/17 08:54:52;;;;;;;26.92;13.55;;;;;;;14.97;100.00;100628.84;2624632;36;20424;-49
2021/08/17 08:57:22;;;;;;;10.40;3.50;;;;;;;14.98;100.00;100630.63;2619000;47;20149;-48
2021/08/17 08:59:51;;;;;;;13.57;3.10;;;;;;;14.94;100.00;100632.28;2635534;36;20448;-50
2021/08/17 09:02:21;;;;;;;15.03;5.80;;;;;;;14.93;100.00;100632.25;2619002;47;20526;-50
2021/08/17 09:04:55;;;;;;;4.23;2.27;;;;;;;14.73;100.00;100627.47;2623389;36;21662;-50
2021/08/17 09:07:35;;;;;;;14.07;5.85;;;;;;;14.80;100.00;100623.28;2619019;47;20870;-51
2021/08/17 09:10:11;;;;;;;23.17;11.80;;;;;;;14.81;100.00;100627.63;2625826;36;20191;-50
2021/08/17 09:12:43;;;;;;;16.77;7.80;;;;;;;14.82;100.00;100626.81;2619013;47;20441;-49
2021/08/17 09:15:15;;;;;;;20.37;11.60;;;;;;;14.92;100.00;100631.34;2623491;36;20448;-49
2021/08/17 09:17:59;;;;;;;15.30;6.90;;;;;;;14.79;100.00;100621.53;2619034;47;20503;-48
2021/08/17 09:20:34;;;;;;;21.87;10.50;;;;;;;14.79;100.00;100639.72;2620661;36;20191;-50
2021/08/17 09:23:26;;;;;;;8.80;5.27;;;;;;;14.89;100.00;100635.63;2619190;47;20392;-51
2021/08/17 09:25:57;;;;;;;23.77;10.30;;;;;;;14.65;100.00;100644.56;2621680;36;20428;-51
2021/08/17 09:28:32;;;;;;;19.33;7.53;;;;;;;14.75;100.00;100645.69;2619815;46;20388;-52
2021/08/17 09:31:02;;;;;;;45.43;24.13;;;;;;;14.79;100.00;100658.78;2642037;36;20553;-49
2021/08/17 09:33:43;;;;;;;38.77;19.33;;;;;;;14.60;100.00;100662.63;2619894;46;20415;-52
2021/08/17 09:36:15;;;;;;;19.87;9.13;;;;;;;14.51;100.00;100662.44;2623896;36;20461;-49
2021/08/17 09:38:45;;;;;;;27.47;14.60;;;;;;;14.57;100.00;100663.44;2619916;47;20417;-51
2021/08/17 09:41:23;;;;;;;24.43;12.63;;;;;;;14.49;100.00;100671.88;2641343;36;20455;-50
2021/08/17 09:43:57;;;;;;;10.67;5.97;;;;;;;14.46;100.00;100670.09;2619887;47;20404;-51
2021/08/17 09:46:31;;;;;;;48.33;25.80;;;;;;;14.48;100.00;100665.81;2640618;36;20447;-49
2021/08/17 09:49:19;;;;;;;13.40;7.63;;;;;;;14.38;100.00;100662.13;2619795;47;20424;-49
2021/08/17 09:51:51;;;;;;;42.90;20.57;;;;;;;14.43;100.00;100675.22;2628221;36;20467;-53
2021/08/17 09:54:22;;;;;;;23.53;5.20;;;;;;;14.52;100.00;100677.16;2620278;39;20718;-50
2021/08/17 09:57:00;;;;;;;82.63;41.53;;;;;;;14.71;100.00;100681.06;2626240;36;20762;-54
2021/08/17 09:59:37;;;;;;;39.37;16.13;;;;;;;14.74;100.00;100675.06;2619842;47;20410;-51
2021/08/17 10:02:07;;;;;;;28.87;12.93;;;;;;;14.67;100.00;100667.13;2621951;36;20548;-51
2021/08/17 10:04:38;;;;;;;9.63;2.93;;;;;;;14.61;100.00;100672.19;2640286;36;20396;-53
2021/08/17 10:07:11;;;;;;;9.23;3.40;;;;;;;14.66;100.00;100660.19;2619129;46;20412;-50
2021/08/17 10:09:41;;;;;;;14.00;5.93;;;;;;;14.74;100.00;100669.88;2644412;36;20910;-49
2021/08/17 10:12:10;;;;;;;42.15;17.55;;;;;;;14.82;100.00;100673.56;2619040;46;20187;-53
2021/08/17 10:14:42;;;;;;;70.30;31.67;;;;;;;14.86;100.00;100665.00;2641998;36;20167;-49
2021/08/17 10:17:12;;;;;;;17.13;4.87;;;;;;;15.02;100.00;100649.75;2619560;46;20398;-49
2021/08/17 10:19:42;;;;;;;29.93;9.27;;;;;;;14.90;100.00;100652.94;2644000;36;20734;-52
2021/08/17 10:22:14;;;;;;;11.60;4.23;;;;;;;14.91;100.00;100649.53;2618542;39;20761;-49
2021/08/17 10:24:45;;;;;;;14.87;5.43;;;;;;;14.77;100.00;100659.59;2628677;36;21240;-50
2021/08/17 10:27:27;;;;;;;23.77;8.87;;;;;;;14.76;100.00;100658.72;2619468;47;20870;-50
2021/08/17 10:30:02;;;;;;;41.07;15.90;;;;;;;14.68;100.00;100655.91;2619019;46;20447;-52
2021/08/17 10:32:48;;;;;;;66.60;21.20;;;;;;;14.61;100.00;100673.91;2619276;46;20444;-52
2021/08/17 10:35:36;;;;;;;33.67;14.27;;;;;;;14.53;100.00;100681.50;2619173;47;20876;-50
2021/08/17 10:38:35;;;;;;;53.40;19.77;;;;;;;14.45;100.00;100687.41;2620289;39;20711;-51
2021/08/17 10:41:09;;;;;;;55.37;22.90;;;;;;;14.43;100.00;100680.41;2623062;36;20468;-54
2021/08/17 10:44:17;;;;;;;29.67;9.10;;;;;;;14.45;100.00;100684.78;2619666;46;20396;-51
2021/08/17 10:47:02;;;;;;;19.17;6.20;;;;;;;14.65;100.00;100687.00;2618786;46;20409;-50
2021/08/17 10:49:34;;;;;;;35.43;16.37;;;;;;;14.66;100.00;100703.47;2624585;36;20411;-53
2021/08/17 10:52:06;;;;;;;23.53;8.90;;;;;;;14.57;100.00;100684.22;2619754;39;20782;-51
2021/08/17 10:54:37;;;;;;;18.17;7.73;;;;;;;14.49;100.00;100690.94;2619577;36;20428;-50
2021/08/17 10:57:20;;;;;;;19.23;5.80;;;;;;;14.48;100.00;100690.91;2619145;47;20894;-52
2021/08/17 10:59:51;;;;;;;48.23;18.33;;;;;;;14.51;100.00;100711.75;2626103;36;20384;-50
2021/08/17 11:02:24;;;;;;;40.73;17.43;;;;;;;14.44;100.00;100718.50;2619719;46;20443;-50
2021/08/17 11:04:55;;;;;;;25.80;6.67;;;;;;;14.51;100.00;100720.41;2619653;47;20581;-51
2021/08/17 11:07:31;;;;;;;25.50;9.90;;;;;;;14.54;100.00;100730.00;2619240;47;20404;-54
2021/08/17 11:10:03;;;;;;;34.07;13.97;;;;;;;14.43;100.00;100721.94;2619581;47;20407;-51
2021/08/17 11:12:37;;;;;;;27.00;6.00;;;;;;;14.40;100.00;100727.03;2624207;36;20443;-50
2021/08/17 11:15:08;;;;;;;128.17;31.53;;;;;;;14.44;100.00;100739.25;2619568;47;20861;-53
2021/08/17 11:17:39;;;;;;;140.43;44.97;;;;;;;14.52;100.00;100736.88;2618826;46;20427;-50
2021/08/17 11:20:09;;;;;;;98.43;36.10;;;;;;;14.63;100.00;100739.72;2620071;39;20710;-52
2021/08/17 11:22:39;;;;;;;61.47;24.00;;;;;;;14.49;100.00;100747.16;2618967;47;20187;-49
2021/08/17 11:25:11;;;;;;;32.47;10.37;;;;;;;14.30;100.00;100749.28;2619586;46;20160;-52
2021/08/17 11:27:44;;;;;;;37.63;12.83;;;;;;;14.31;100.00;100748.47;2619351;36;20446;-49